Time;durP1;ratioP1;P1;durP2;ratioP2;P2;SDS_P1;SDS_P2;PMS_P1;PMS_P2;Temp;Humidity;BMP_temperature;BMP_pressure;BME280_temperature;BME280_humidity;BME280_pressure;Samples;Min_cycle;Max_cycle;Signal;HPM_P1;HPM_P2
2023/05/13 00:00:13;;;;;;;;;;;;;;;;;;6164375;23;19916;-92
2023/05/13 00:02:39;;;;;;;;;;;;;;;;;;6164959;23;19923;-94
2023/05/13 00:05:05;;;;;;;;;;;;;;;;;;6163887;23;19972;-93
2023/05/13 00:07:30;;;;;;;;;;;;;;;;;;6164370;23;19987;-94
2023/05/13 00:09:56;;;;;;;;;;;;;;;;;;6164566;23;19966;-94
2023/05/13 00:12:22;;;;;;;;;;;;;;;;;;6164182;23;19919;-93
2023/05/13 00:14:48;;;;;;;;;;;;;;;;;;6164243;23;19927;-94
2023/05/13 00:17:15;;;;;;;;;;;;;;;;;;6188790;23;19924;-94
2023/05/13 00:19:43;;;;;;;;;;;;;;;;;;6194257;23;21033;-93
2023/05/13 00:22:08;;;;;;;;;;;;;;;;;;6219041;23;19920;-94
2023/05/13 00:24:35;;;;;;;;;;;;;;;;;;6194236;23;19916;-93
2023/05/13 00:27:01;;;;;;;;;;;;;;;;;;6193718;23;19923;-93
2023/05/13 00:29:30;;;;;;;;;;;;;;;;;;6193880;23;19919;-92
2023/05/13 00:31:56;;;;;;;;;;;;;;;;;;6193990;23;19939;-93
2023/05/13 00:34:23;;;;;;;;;;;;;;;;;;6218275;23;19923;-93
2023/05/13 00:36:49;;;;;;;;;;;;;;;;;;6201620;23;19943;-91
2023/05/13 00:39:15;;;;;;;;;;;;;;;;;;6206648;23;20070;-92
2023/05/13 00:41:41;;;;;;;;;;;;;;;;;;6194045;23;19915;-92
2023/05/13 00:44:07;;;;;;;;;;;;;;;;;;6194398;23;20428;-94
2023/05/13 00:46:32;;;;;;;;;;;;;;;;;;6219175;23;19916;-93
2023/05/13 00:48:58;;;;;;;;;;;;;;;;;;6218925;23;19924;-93
2023/05/13 00:51:24;;;;;;;;;;;;;;;;;;6193483;23;19926;-93
2023/05/13 00:53:50;;;;;;;;;;;;;;;;;;6194222;23;19915;-93
2023/05/13 00:56:16;;;;;;;;;;;;;;;;;;6193898;23;19983;-93
2023/05/13 00:58:42;;;;;;;;;;;;;;;;;;6193922;23;20103;-93
2023/05/13 01:01:08;;;;;;;;;;;;;;;;;;6195697;23;19916;-94
2023/05/13 01:03:34;;;;;;;;;;;;;;;;;;6220992;23;19915;-95
2023/05/13 01:06:00;;;;;;;;;;;;;;;;;;6221459;23;19915;-94
2023/05/13 01:08:26;;;;;;;;;;;;;;;;;;6197074;23;19959;-94
2023/05/13 01:10:52;;;;;;;;;;;;;;;;;;6221085;23;19919;-94
2023/05/13 01:13:18;;;;;;;;;;;;;;;;;;6220957;23;19958;-94
2023/05/13 01:15:44;;;;;;;;;;;;;;;;;;6195088;22;19919;-93
2023/05/13 01:18:10;;;;;;;;;;;;;;;;;;6195203;23;19919;-94
2023/05/13 01:20:36;;;;;;;;;;;;;;;;;;6196002;23;19920;-94
2023/05/13 01:23:05;;;;;;;;;;;;;;;;;;6195276;23;19919;-94
2023/05/13 01:25:33;;;;;;;;;;;;;;;;;;6222116;22;19916;-93
2023/05/13 01:27:59;;;;;;;;;;;;;;;;;;6221050;23;19981;-93
2023/05/13 01:30:25;;;;;;;;;;;;;;;;;;6195515;23;20193;-93
2023/05/13 01:32:51;;;;;;;;;;;;;;;;;;6195937;23;19922;-95
2023/05/13 01:35:17;;;;;;;;;;;;;;;;;;6220560;23;20229;-95
2023/05/13 01:37:43;;;;;;;;;;;;;;;;;;6220877;23;19922;-94
2023/05/13 01:40:09;;;;;;;;;;;;;;;;;;6195794;23;19924;-95
2023/05/13 01:42:35;;;;;;;;;;;;;;;;;;6195976;23;19951;-94
2023/05/13 01:45:01;;;;;;;;;;;;;;;;;;6203245;22;19923;-90
2023/05/13 01:47:27;;;;;;;;;;;;;;;;;;6203846;23;19920;-93
2023/05/13 01:49:53;;;;;;;;;;;;;;;;;;6195655;23;19915;-93
2023/05/13 01:52:19;;;;;;;;;;;;;;;;;;6195070;23;20245;-93
2023/05/13 01:54:45;;;;;;;;;;;;;;;;;;6195477;23;19916;-93
2023/05/13 01:57:11;;;;;;;;;;;;;;;;;;6194673;23;19923;-92
2023/05/13 01:59:37;;;;;;;;;;;;;;;;;;6194849;23;20082;-93
2023/05/13 02:02:03;;;;;;;;;;;;;;;;;;6220256;23;20361;-92
2023/05/13 02:04:29;;;;;;;;;;;;;;;;;;6194843;23;19928;-93
2023/05/13 02:06:55;;;;;;;;;;;;;;;;;;6194793;23;20244;-93
2023/05/13 02:09:21;;;;;;;;;;;;;;;;;;6195756;23;20333;-94
2023/05/13 02:11:47;;;;;;;;;;;;;;;;;;6220442;23;19955;-93
2023/05/13 02:14:13;;;;;;;;;;;;;;;;;;6195512;23;20007;-92
2023/05/13 02:16:38;;;;;;;;;;;;;;;;;;6220158;23;19926;-94
2023/05/13 02:19:04;;;;;;;;;;;;;;;;;;6195155;23;19924;-94
2023/05/13 02:21:31;;;;;;;;;;;;;;;;;;6194969;23;20357;-94
2023/05/13 02:23:57;;;;;;;;;;;;;;;;;;6195370;23;20001;-93
2023/05/13 02:26:23;;;;;;;;;;;;;;;;;;6195159;23;20317;-93
2023/05/13 02:28:48;;;;;;;;;;;;;;;;;;6194842;23;19926;-92
2023/05/13 02:31:14;;;;;;;;;;;;;;;;;;6194976;23;19932;-92
2023/05/13 02:33:40;;;;;;;;;;;;;;;;;;6194988;23;20334;-93
2023/05/13 02:36:06;;;;;;;;;;;;;;;;;;6194631;23;19915;-94
2023/05/13 02:38:32;;;;;;;;;;;;;;;;;;6194668;23;19919;-93
2023/05/13 02:40:58;;;;;;;;;;;;;;;;;;6220328;23;19962;-93
2023/05/13 02:43:26;;;;;;;;;;;;;;;;;;6194736;23;19923;-93
2023/05/13 02:45:52;;;;;;;;;;;;;;;;;;6195027;23;19939;-92
2023/05/13 02:48:18;;;;;;;;;;;;;;;;;;6194999;23;20253;-92
2023/05/13 02:50:44;;;;;;;;;;;;;;;;;;6238478;23;20261;-94
2023/05/13 02:53:10;;;;;;;;;;;;;;;;;;6194794;23;19920;-93
2023/05/13 02:55:36;;;;;;;;;;;;;;;;;;6220086;22;19915;-93
2023/05/13 02:58:02;;;;;;;;;;;;;;;;;;6194390;23;20356;-93
2023/05/13 03:00:27;;;;;;;;;;;;;;;;;;6220184;23;19938;-93
2023/05/13 03:02:53;;;;;;;;;;;;;;;;;;6194688;23;19950;-92
2023/05/13 03:05:19;;;;;;;;;;;;;;;;;;6194289;23;19920;-93
2023/05/13 03:07:45;;;;;;;;;;;;;;;;;;6193879;23;19951;-93
2023/05/13 03:10:11;;;;;;;;;;;;;;;;;;6195222;23;20540;-93
2023/05/13 03:12:37;;;;;;;;;;;;;;;;;;6194350;23;20321;-93
2023/05/13 03:15:03;;;;;;;;;;;;;;;;;;6219918;23;19916;-93
2023/05/13 03:17:30;;;;;;;;;;;;;;;;;;6193973;23;19920;-92
2023/05/13 03:19:56;;;;;;;;;;;;;;;;;;6194547;23;19926;-93
2023/05/13 03:22:22;;;;;;;;;;;;;;;;;;6194670;23;19915;-93
2023/05/13 03:24:48;;;;;;;;;;;;;;;;;;6194351;23;19923;-93
2023/05/13 03:27:14;;;;;;;;;;;;;;;;;;6219440;23;19916;-94
2023/05/13 03:29:40;;;;;;;;;;;;;;;;;;6194295;23;19916;-93
2023/05/13 03:32:06;;;;;;;;;;;;;;;;;;6194270;23;19919;-91
2023/05/13 03:34:32;;;;;;;;;;;;;;;;;;6194079;23;20338;-91
2023/05/13 03:36:58;;;;;;;;;;;;;;;;;;6194186;23;19965;-93
2023/05/13 03:39:25;;;;;;;;;;;;;;;;;;6219916;23;19920;-92
2023/05/13 03:41:51;;;;;;;;;;;;;;;;;;6194475;23;19922;-92
2023/05/13 03:44:17;;;;;;;;;;;;;;;;;;6194661;23;19994;-93
2023/05/13 03:46:43;;;;;;;;;;;;;;;;;;6193737;23;19916;-92
2023/05/13 03:49:09;;;;;;;;;;;;;;;;;;6194362;23;19985;-92
2023/05/13 03:51:35;;;;;;;;;;;;;;;;;;6194245;23;20317;-92
2023/05/13 03:54:01;;;;;;;;;;;;;;;;;;6194180;23;19916;-92
2023/05/13 03:56:27;;;;;;;;;;;;;;;;;;6194051;23;19916;-92
2023/05/13 03:58:53;;;;;;;;;;;;;;;;;;6219156;23;19926;-93
2023/05/13 04:01:19;;;;;;;;;;;;;;;;;;6197144;22;19920;-92
2023/05/13 04:03:45;;;;;;;;;;;;;;;;;;6213980;23;20253;-94
2023/05/13 04:06:12;;;;;;;;;;;;;;;;;;6194527;23;19921;-93
2023/05/13 04:08:38;;;;;;;;;;;;;;;;;;6219671;23;19920;-93
2023/05/13 04:11:04;;;;;;;;;;;;;;;;;;6219933;23;19922;-94
2023/05/13 04:13:30;;;;;;;;;;;;;;;;;;6195786;23;19920;-94
2023/05/13 04:15:56;;;;;;;;;;;;;;;;;;6196489;23;19954;-94
2023/05/13 04:18:22;;;;;;;;;;;;;;;;;;6222596;23;19920;-94
2023/05/13 04:20:48;;;;;;;;;;;;;;;;;;6223029;23;19966;-94
2023/05/13 04:23:14;;;;;;;;;;;;;;;;;;6197812;23;19915;-93
2023/05/13 04:25:41;;;;;;;;;;;;;;;;;;6197454;22;19943;-94
2023/05/13 04:28:07;;;;;;;;;;;;;;;;;;6197867;23;19915;-92
2023/05/13 04:30:33;;;;;;;;;;;;;;;;;;6195928;23;19922;-93
2023/05/13 04:32:59;;;;;;;;;;;;;;;;;;6196921;23;19920;-92
2023/05/13 04:35:24;;;;;;;;;;;;;;;;;;6223836;22;19915;-91
2023/05/13 04:37:50;;;;;;;;;;;;;;;;;;6223217;23;19961;-92
2023/05/13 04:40:16;;;;;;;;;;;;;;;;;;6223341;23;20253;-92
2023/05/13 04:42:42;;;;;;;;;;;;;;;;;;6224159;23;19916;-92
2023/05/13 04:45:08;;;;;;;;;;;;;;;;;;6198365;23;19916;-92
2023/05/13 04:47:34;;;;;;;;;;;;;;;;;;6198231;23;19915;-92
2023/05/13 04:50:00;;;;;;;;;;;;;;;;;;6201291;23;19915;-92
2023/05/13 04:52:26;;;;;;;;;;;;;;;;;;6239314;23;20182;-91
2023/05/13 04:54:52;;;;;;;;;;;;;;;;;;6214740;23;19931;-92
2023/05/13 04:57:18;;;;;;;;;;;;;;;;;;6216396;23;19919;-91
2023/05/13 04:59:44;;;;;;;;;;;;;;;;;;6216545;23;19919;-92
2023/05/13 05:02:10;;;;;;;;;;;;;;;;;;6216998;22;19930;-92
2023/05/13 05:04:36;;;;;;;;;;;;;;;;;;6232284;23;19915;-92
2023/05/13 05:07:02;;;;;;;;;;;;;;;;;;6200151;23;19985;-93
2023/05/13 05:09:31;;;;;;;;;;;;;;;;;;6202210;23;19916;-93
2023/05/13 05:11:59;;;;;;;;;;;;;;;;;;6232288;23;19904;-93
2023/05/13 05:14:25;;;;;;;;;;;;;;;;;;6238250;22;20001;-94
2023/05/13 05:16:51;;;;;;;;;;;;;;;;;;6202733;23;20330;-94
2023/05/13 05:19:22;;;;;;;;;;;;;;;;;;6196024;23;19994;-94
2023/05/13 05:21:48;;;;;;;;;;;;;;;;;;6223456;23;20325;-91
2023/05/13 05:24:14;;;;;;;;;;;;;;;;;;6242937;23;19927;-93
2023/05/13 05:26:40;;;;;;;;;;;;;;;;;;6196378;23;19915;-93
2023/05/13 05:29:06;;;;;;;;;;;;;;;;;;6196484;23;19943;-93
2023/05/13 05:31:35;;;;;;;;;;;;;;;;;;6223906;23;19916;-96
2023/05/13 05:34:01;;;;;;;;;;;;;;;;;;6196443;23;20249;-96
2023/05/13 05:36:27;;;;;;;;;;;;;;;;;;6196073;23;19929;-93
2023/05/13 05:38:53;;;;;;;;;;;;;;;;;;6196450;23;19991;-95
2023/05/13 05:41:19;;;;;;;;;;;;;;;;;;6195801;23;19923;-94
2023/05/13 05:43:45;;;;;;;;;;;;;;;;;;6195841;23;19916;-95
2023/05/13 05:46:10;;;;;;;;;;;;;;;;;;6196276;23;19945;-94
2023/05/13 05:48:36;;;;;;;;;;;;;;;;;;6196162;23;19923;-96
2023/05/13 05:51:02;;;;;;;;;;;;;;;;;;6196093;23;19916;-94
2023/05/13 05:53:28;;;;;;;;;;;;;;;;;;6195610;23;19951;-93
2023/05/13 05:55:55;;;;;;;;;;;;;;;;;;6194671;23;19915;-93
2023/05/13 05:58:21;;;;;;;;;;;;;;;;;;6221285;23;19923;-93
2023/05/13 06:00:47;;;;;;;;;;;;;;;;;;6194858;23;20337;-91
2023/05/13 06:03:12;;;;;;;;;;;;;;;;;;6194948;23;19991;-92
2023/05/13 06:05:38;;;;;;;;;;;;;;;;;;6200230;22;20261;-89
2023/05/13 06:08:04;;;;;;;;;;;;;;;;;;6219668;23;19923;-93
2023/05/13 06:10:30;;;;;;;;;;;;;;;;;;6195225;23;19951;-96
2023/05/13 06:13:14;;;;;;;;;;;;;;;;;;6201877;23;19965;-94
2023/05/13 06:15:49;;;;;;;;;;;;;;;;;;6205509;22;19915;-95
2023/05/13 06:18:15;;;;;;;;;;;;;;;;;;6204989;23;20029;-93
2023/05/13 06:20:41;;;;;;;;;;;;;;;;;;6219716;23;19927;-93
2023/05/13 06:23:07;;;;;;;;;;;;;;;;;;6194591;23;19916;-94
2023/05/13 06:25:33;;;;;;;;;;;;;;;;;;6195204;22;19919;-94
2023/05/13 06:27:59;;;;;;;;;;;;;;;;;;6194630;23;19919;-93
2023/05/13 06:30:27;;;;;;;;;;;;;;;;;;6194503;23;19916;-94
2023/05/13 06:32:54;;;;;;;;;;;;;;;;;;6199927;23;19916;-93
2023/05/13 06:35:20;;;;;;;;;;;;;;;;;;6222634;23;19966;-94
2023/05/13 06:38:17;;;;;;;;;;;;;;;;;;;;;
2023/05/13 06:40:41;;;;;;;;;;;;;;;;;;6223096;23;19977;-95
2023/05/13 06:43:07;;;;;;;;;;;;;;;;;;6197167;23;19958;-94
2023/05/13 06:45:35;;;;;;;;;;;;;;;;;;6221600;22;19923;-95
2023/05/13 06:48:09;;;;;;;;;;;;;;;;;;6165082;23;20246;-92
2023/05/13 06:50:38;;;;;;;;;;;;;;;;;;6132332;23;20230;-96
2023/05/13 06:56:07;;;;;;;;;;;;;;;;;;6161071;23;19939;-94
2023/05/13 06:58:33;;;;;;;;;;;;;;;;;;6132661;23;19921;-92
2023/05/13 07:01:07;;;;;;;;;;;;;;;;;;6137213;23;19923;-91
2023/05/13 07:03:33;;;;;;;;;;;;;;;;;;6130737;23;19967;-96
2023/05/13 07:05:59;;;;;;;;;;;;;;;;;;6129824;23;19916;-94
2023/05/13 07:08:34;;;;;;;;;;;;;;;;;;6130662;23;20185;-95
2023/05/13 07:11:00;;;;;;;;;;;;;;;;;;6131858;23;19983;-93
2023/05/13 07:13:26;;;;;;;;;;;;;;;;;;6129703;23;20381;-92
2023/05/13 07:18:43;;;;;;;;;;;;;;;;;;6220478;22;19969;-94
2023/05/13 07:21:08;;;;;;;;;;;;;;;;;;6166396;23;20313;-95
2023/05/13 07:23:34;;;;;;;;;;;;;;;;;;6164507;23;19916;-94
2023/05/13 07:26:00;;;;;;;;;;;;;;;;;;6151072;23;20437;-94
2023/05/13 07:28:29;;;;;;;;;;;;;;;;;;6164562;23;19948;-96
2023/05/13 07:30:56;;;;;;;;;;;;;;;;;;6174243;23;19916;-95
2023/05/13 07:36:32;;;;;;;;;;;;;;;;;;6198135;22;19920;-96
2023/05/13 07:39:01;;;;;;;;;;;;;;;;;;6167926;23;19951;-94
2023/05/13 07:41:36;;;;;;;;;;;;;;;;;;6143589;23;19920;-96
2023/05/13 07:44:30;;;;;;;;;;;;;;;;;;;;;
2023/05/13 07:52:47;;;;;;;;;;;;;;;;;;6187909;23;19955;-95
2023/05/13 07:55:22;;;;;;;;;;;;;;;;;;6177543;23;19927;-96
2023/05/13 08:00:53;;;;;;;;;;;;;;;;;;6196842;23;19922;-96
2023/05/13 08:06:14;;;;;;;;;;;;;;;;;;6186307;23;19956;-96
2023/05/13 08:11:43;;;;;;;;;;;;;;;;;;6204685;23;19970;-94
2023/05/13 08:17:22;;;;;;;;;;;;;;;;;;;;;
2023/05/13 08:19:51;;;;;;;;;;;;;;;;;;6197066;23;19924;-94
2023/05/13 08:22:17;;;;;;;;;;;;;;;;;;6166785;23;19920;-95
2023/05/13 08:27:17;;;;;;;;;;;;;;;;;;6186495;23;19927;-94
2023/05/13 08:29:43;;;;;;;;;;;;;;;;;;6134737;23;20214;-94
2023/05/13 08:32:09;;;;;;;;;;;;;;;;;;6134324;23;19916;-93
2023/05/13 08:34:35;;;;;;;;;;;;;;;;;;6134775;23;19956;-94
2023/05/13 08:37:04;;;;;;;;;;;;;;;;;;6134676;23;19920;-95
2023/05/13 08:39:31;;;;;;;;;;;;;;;;;;6134165;23;19923;-94
2023/05/13 08:42:01;;;;;;;;;;;;;;;;;;6159001;23;20115;-94
2023/05/13 08:44:30;;;;;;;;;;;;;;;;;;6135063;23;20074;-94
2023/05/13 08:46:56;;;;;;;;;;;;;;;;;;6149867;23;19914;-92
2023/05/13 08:49:22;;;;;;;;;;;;;;;;;;6137855;23;20340;-94
2023/05/13 08:51:48;;;;;;;;;;;;;;;;;;6132396;23;19924;-94
2023/05/13 08:54:15;;;;;;;;;;;;;;;;;;6134180;23;19951;-94
2023/05/13 08:56:41;;;;;;;;;;;;;;;;;;6134329;23;20020;-93
2023/05/13 08:59:07;;;;;;;;;;;;;;;;;;6134742;23;20054;-94
2023/05/13 09:01:33;;;;;;;;;;;;;;;;;;6158172;23;19954;-94
2023/05/13 09:03:59;;;;;;;;;;;;;;;;;;6134340;23;19916;-95
2023/05/13 09:06:25;;;;;;;;;;;;;;;;;;6134007;23;19939;-93
2023/05/13 09:08:51;;;;;;;;;;;;;;;;;;6135356;23;20330;-96
2023/05/13 09:11:20;;;;;;;;;;;;;;;;;;6153664;23;19925;-96
2023/05/13 09:13:46;;;;;;;;;;;;;;;;;;6148358;23;19927;-96
2023/05/13 09:21:26;;;;;;;;;;;;;;;;;;6187595;23;19956;-94
2023/05/13 09:23:52;;;;;;;;;;;;;;;;;;6161319;23;19916;-94
2023/05/13 09:26:36;;;;;;;;;;;;;;;;;;6137631;23;19923;-95
2023/05/13 09:29:02;;;;;;;;;;;;;;;;;;6138285;23;20104;-96
2023/05/13 09:31:31;;;;;;;;;;;;;;;;;;6140989;23;19920;-95
2023/05/13 09:34:02;;;;;;;;;;;;;;;;;;6139594;23;19983;-95
2023/05/13 09:36:32;;;;;;;;;;;;;;;;;;6136581;23;19921;-95
2023/05/13 09:38:58;;;;;;;;;;;;;;;;;;6137185;23;19923;-95
2023/05/13 09:41:27;;;;;;;;;;;;;;;;;;6138355;23;19996;-96
2023/05/13 10:25:51;;;;;;;;;;;;;;;;;;6206515;23;19920;-93
2023/05/13 10:28:22;;;;;;;;;;;;;;;;;;6167662;23;19916;-94
2023/05/13 10:30:56;;;;;;;;;;;;;;;;;;6181894;23;19920;-92
2023/05/13 10:33:22;;;;;;;;;;;;;;;;;;6165101;23;19986;-94
2023/05/13 10:35:57;;;;;;;;;;;;;;;;;;6166091;23;19920;-96
2023/05/13 10:38:26;;;;;;;;;;;;;;;;;;6164990;23;20301;-94
2023/05/13 10:40:52;;;;;;;;;;;;;;;;;;6165037;23;19923;-95
2023/05/13 10:43:18;;;;;;;;;;;;;;;;;;6164426;23;20258;-95
2023/05/13 10:45:43;;;;;;;;;;;;;;;;;;6165884;23;19916;-95
2023/05/13 10:48:09;;;;;;;;;;;;;;;;;;6165584;23;19954;-93
2023/05/13 10:50:36;;;;;;;;;;;;;;;;;;6180617;23;20023;-94
2023/05/13 10:53:03;;;;;;;;;;;;;;;;;;6165149;23;19975;-94
2023/05/13 10:55:32;;;;;;;;;;;;;;;;;;6191368;23;19923;-94
2023/05/13 10:57:58;;;;;;;;;;;;;;;;;;6164705;23;20237;-93
2023/05/13 11:00:24;;;;;;;;;;;;;;;;;;6165763;23;19916;-94
2023/05/13 11:02:50;;;;;;;;;;;;;;;;;;6166562;23;20349;-93
2023/05/13 11:05:16;;;;;;;;;;;;;;;;;;6164311;23;19916;-94
2023/05/13 11:07:42;;;;;;;;;;;;;;;;;;6165009;23;19992;-96
2023/05/13 11:10:10;;;;;;;;;;;;;;;;;;6165686;23;19988;-96
2023/05/13 11:12:36;;;;;;;;;;;;;;;;;;6172145;23;19920;-95
2023/05/13 11:15:02;;;;;;;;;;;;;;;;;;6167922;23;19955;-93
2023/05/13 11:17:28;;;;;;;;;;;;;;;;;;6164500;23;19942;-93
2023/05/13 11:19:54;;;;;;;;;;;;;;;;;;6164548;23;19948;-94
2023/05/13 11:22:22;;;;;;;;;;;;;;;;;;6164580;23;20275;-94
2023/05/13 11:24:48;;;;;;;;;;;;;;;;;;6166009;23;19978;-94
2023/05/13 11:27:15;;;;;;;;;;;;;;;;;;6163380;23;19919;-95
2023/05/13 11:29:41;;;;;;;;;;;;;;;;;;6163853;23;20223;-95
2023/05/13 11:32:07;;;;;;;;;;;;;;;;;;6164557;23;20116;-94
2023/05/13 11:34:35;;;;;;;;;;;;;;;;;;6164215;23;19916;-94
2023/05/13 11:37:01;;;;;;;;;;;;;;;;;;6163750;23;19927;-95
2023/05/13 11:39:27;;;;;;;;;;;;;;;;;;6165413;23;19927;-94
2023/05/13 11:41:56;;;;;;;;;;;;;;;;;;6164157;23;19951;-93
2023/05/13 11:44:22;;;;;;;;;;;;;;;;;;6163825;23;19993;-93
2023/05/13 11:46:47;;;;;;;;;;;;;;;;;;6163791;23;20288;-93
2023/05/13 11:49:13;;;;;;;;;;;;;;;;;;6165329;23;19915;-94
2023/05/13 11:51:40;;;;;;;;;;;;;;;;;;6168533;23;20263;-94
2023/05/13 11:54:09;;;;;;;;;;;;;;;;;;6189789;23;19971;-92
2023/05/13 11:56:38;;;;;;;;;;;;;;;;;;6190165;23;19920;-94
2023/05/13 11:59:04;;;;;;;;;;;;;;;;;;6164507;23;19923;-95
2023/05/13 12:01:30;;;;;;;;;;;;;;;;;;6170195;23;20330;-92
2023/05/13 12:03:56;;;;;;;;;;;;;;;;;;6183284;23;19920;-94
2023/05/13 12:06:22;;;;;;;;;;;;;;;;;;6165183;23;19987;-93
2023/05/13 12:08:48;;;;;;;;;;;;;;;;;;6165034;23;19939;-93
2023/05/13 12:11:14;;;;;;;;;;;;;;;;;;6164413;23;19916;-93
2023/05/13 12:13:40;;;;;;;;;;;;;;;;;;6164242;23;19916;-93
2023/05/13 12:16:06;;;;;;;;;;;;;;;;;;6169797;23;20022;-96
2023/05/13 12:18:33;;;;;;;;;;;;;;;;;;6168235;23;20345;-96
2023/05/13 12:20:59;;;;;;;;;;;;;;;;;;6168001;23;20003;-94
2023/05/13 12:23:25;;;;;;;;;;;;;;;;;;6163858;23;20051;-96
2023/05/13 12:25:52;;;;;;;;;;;;;;;;;;6161084;23;19920;-96
2023/05/13 12:28:18;;;;;;;;;;;;;;;;;;6160474;23;19924;-96
2023/05/13 12:41:48;;;;;;;;;;;;;;;;;;6166888;22;19920;-95
2023/05/13 12:44:14;;;;;;;;;;;;;;;;;;6106683;23;19982;-94
2023/05/13 12:46:40;;;;;;;;;;;;;;;;;;6105650;23;20149;-95
2023/05/13 12:49:06;;;;;;;;;;;;;;;;;;6130408;23;19923;-92
2023/05/13 12:51:35;;;;;;;;;;;;;;;;;;6106363;23;19924;-96
2023/05/13 12:54:01;;;;;;;;;;;;;;;;;;6106637;23;19923;-95
2023/05/13 12:56:27;;;;;;;;;;;;;;;;;;6109279;23;20383;-96
2023/05/13 12:58:53;;;;;;;;;;;;;;;;;;6112620;23;19921;-95
2023/05/13 13:01:19;;;;;;;;;;;;;;;;;;6112801;23;20218;-94
2023/05/13 13:03:48;;;;;;;;;;;;;;;;;;6108422;23;20084;-96
2023/05/13 13:06:14;;;;;;;;;;;;;;;;;;6108217;23;19917;-95
2023/05/13 13:08:40;;;;;;;;;;;;;;;;;;6108440;23;19971;-96
2023/05/13 13:11:06;;;;;;;;;;;;;;;;;;6142165;23;19956;-96
2023/05/13 13:13:32;;;;;;;;;;;;;;;;;;6143488;23;19924;-94
2023/05/13 13:15:58;;;;;;;;;;;;;;;;;;6107997;23;19917;-94
2023/05/13 13:18:24;;;;;;;;;;;;;;;;;;6108257;23;19975;-95
2023/05/13 13:20:50;;;;;;;;;;;;;;;;;;6108745;23;19952;-96
2023/05/13 13:23:16;;;;;;;;;;;;;;;;;;6108842;23;19916;-95
2023/05/13 13:25:42;;;;;;;;;;;;;;;;;;6117612;23;19917;-95
2023/05/13 13:28:08;;;;;;;;;;;;;;;;;;6124452;23;20110;-95
2023/05/13 13:30:37;;;;;;;;;;;;;;;;;;6152922;23;19921;-94
2023/05/13 13:33:11;;;;;;;;;;;;;;;;;;6156264;23;19921;-94
2023/05/13 13:35:37;;;;;;;;;;;;;;;;;;6129868;23;19908;-93
2023/05/13 13:38:07;;;;;;;;;;;;;;;;;;6132107;23;19916;-92
2023/05/13 13:40:36;;;;;;;;;;;;;;;;;;6160587;23;19975;-92
2023/05/13 13:43:02;;;;;;;;;;;;;;;;;;6158671;23;19930;-93
2023/05/13 13:45:28;;;;;;;;;;;;;;;;;;6160816;23;19960;-92
2023/05/13 13:47:54;;;;;;;;;;;;;;;;;;6158180;23;19940;-94
2023/05/13 13:50:20;;;;;;;;;;;;;;;;;;6184370;23;19921;-94
2023/05/13 13:52:46;;;;;;;;;;;;;;;;;;6150013;23;19916;-95
2023/05/13 13:55:13;;;;;;;;;;;;;;;;;;6141420;23;19916;-93
2023/05/13 13:57:39;;;;;;;;;;;;;;;;;;6142469;23;19946;-95
2023/05/13 14:00:05;;;;;;;;;;;;;;;;;;6141895;23;19951;-93
2023/05/13 14:02:31;;;;;;;;;;;;;;;;;;6142462;23;19939;-94
2023/05/13 14:04:57;;;;;;;;;;;;;;;;;;6142889;23;19916;-94
2023/05/13 14:07:22;;;;;;;;;;;;;;;;;;6164968;23;19943;-95
2023/05/13 14:12:24;;;;;;;;;;;;;;;;;;6185447;22;20228;-96
2023/05/13 14:14:50;;;;;;;;;;;;;;;;;;6116761;23;19917;-96
2023/05/13 14:17:16;;;;;;;;;;;;;;;;;;6115305;23;19928;-95
2023/05/13 14:19:42;;;;;;;;;;;;;;;;;;6112775;23;20294;-95
2023/05/13 14:22:08;;;;;;;;;;;;;;;;;;6114234;23;19951;-94
2023/05/13 14:24:35;;;;;;;;;;;;;;;;;;6143022;23;19956;-96
2023/05/13 14:27:01;;;;;;;;;;;;;;;;;;6116095;23;19920;-96
2023/05/13 14:29:27;;;;;;;;;;;;;;;;;;6113048;23;19923;-96
2023/05/13 14:31:53;;;;;;;;;;;;;;;;;;6111071;23;19920;-93
2023/05/13 14:34:19;;;;;;;;;;;;;;;;;;6111474;23;19928;-93
2023/05/13 14:36:51;;;;;;;;;;;;;;;;;;6116614;23;20055;-94
2023/05/13 14:39:17;;;;;;;;;;;;;;;;;;6114636;23;19923;-95
2023/05/13 14:41:45;;;;;;;;;;;;;;;;;;6113079;23;19944;-94
2023/05/13 14:44:11;;;;;;;;;;;;;;;;;;6110797;23;19917;-95
2023/05/13 14:46:38;;;;;;;;;;;;;;;;;;6112575;23;19917;-94
2023/05/13 14:49:04;;;;;;;;;;;;;;;;;;6110734;23;19952;-94
2023/05/13 14:51:30;;;;;;;;;;;;;;;;;;6109216;23;19921;-93
2023/05/13 14:53:59;;;;;;;;;;;;;;;;;;6134548;23;19967;-93
2023/05/13 14:56:25;;;;;;;;;;;;;;;;;;6108995;23;19960;-94
2023/05/13 14:58:52;;;;;;;;;;;;;;;;;;6108448;23;19921;-94
2023/05/13 15:01:18;;;;;;;;;;;;;;;;;;6108590;23;19916;-95
2023/05/13 15:03:43;;;;;;;;;;;;;;;;;;6113334;23;19964;-92
2023/05/13 15:06:09;;;;;;;;;;;;;;;;;;6127974;23;19909;-93
2023/05/13 15:08:36;;;;;;;;;;;;;;;;;;6133843;23;20354;-95
2023/05/13 15:11:02;;;;;;;;;;;;;;;;;;6107760;23;19979;-94
2023/05/13 15:13:31;;;;;;;;;;;;;;;;;;6119425;23;19924;-95
2023/05/13 15:15:57;;;;;;;;;;;;;;;;;;6131313;23;19917;-95
2023/05/13 15:18:23;;;;;;;;;;;;;;;;;;6131091;23;20254;-95
2023/05/13 15:20:49;;;;;;;;;;;;;;;;;;6133163;23;19924;-95
2023/05/13 15:23:15;;;;;;;;;;;;;;;;;;6156573;23;19971;-95
2023/05/13 15:25:41;;;;;;;;;;;;;;;;;;6131063;23;19920;-95
2023/05/13 15:28:07;;;;;;;;;;;;;;;;;;6133181;23;19917;-95
2023/05/13 15:30:35;;;;;;;;;;;;;;;;;;6157216;23;20039;-96
2023/05/13 15:33:01;;;;;;;;;;;;;;;;;;6131506;23;20409;-96
2023/05/13 15:35:26;;;;;;;;;;;;;;;;;;6133468;23;19916;-96
2023/05/13 15:37:52;;;;;;;;;;;;;;;;;;6134007;23;19983;-93
2023/05/13 15:40:18;;;;;;;;;;;;;;;;;;6138073;23;19921;-94
2023/05/13 15:43:05;;;;;;;;;;;;;;;;;;6142262;23;19916;-96
2023/05/13 15:45:32;;;;;;;;;;;;;;;;;;6162488;23;19932;-92
2023/05/13 15:47:57;;;;;;;;;;;;;;;;;;6137657;23;20016;-93
2023/05/13 15:53:09;;;;;;;;;;;;;;;;;;6159213;23;20357;-92
2023/05/13 15:55:36;;;;;;;;;;;;;;;;;;6112994;23;19927;-95
2023/05/13 15:58:02;;;;;;;;;;;;;;;;;;6108244;23;19999;-94
2023/05/13 16:00:31;;;;;;;;;;;;;;;;;;6117698;23;19928;-93
2023/05/13 16:03:00;;;;;;;;;;;;;;;;;;6137073;23;19931;-94
2023/05/13 16:08:20;;;;;;;;;;;;;;;;;;6212090;22;19942;-95
2023/05/13 16:13:54;;;;;;;;;;;;;;;;;;6222817;23;19970;-95
2023/05/13 16:16:29;;;;;;;;;;;;;;;;;;6171843;23;19942;-95
2023/05/13 16:18:58;;;;;;;;;;;;;;;;;;6171314;23;19981;-93
2023/05/13 16:21:27;;;;;;;;;;;;;;;;;;6168613;23;19923;-93
2023/05/13 16:23:53;;;;;;;;;;;;;;;;;;6164866;23;19917;-92
2023/05/13 16:26:20;;;;;;;;;;;;;;;;;;6163613;23;19916;-93
2023/05/13 16:28:46;;;;;;;;;;;;;;;;;;6170188;23;19916;-96
2023/05/13 16:31:15;;;;;;;;;;;;;;;;;;6198657;23;19942;-95
2023/05/13 16:33:44;;;;;;;;;;;;;;;;;;6166974;23;19940;-91
2023/05/13 16:36:23;;;;;;;;;;;;;;;;;;;;;
2023/05/13 16:41:40;;;;;;;;;;;;;;;;;;6137997;23;19917;-93
2023/05/13 16:44:24;;;;;;;;;;;;;;;;;;6139845;23;19974;-96
2023/05/13 16:46:50;;;;;;;;;;;;;;;;;;6109276;23;19960;-94
2023/05/13 16:49:16;;;;;;;;;;;;;;;;;;6119266;23;20003;-96
2023/05/13 16:51:45;;;;;;;;;;;;;;;;;;6119341;23;19916;-96
2023/05/13 16:54:11;;;;;;;;;;;;;;;;;;6116694;23;19940;-94
2023/05/13 16:56:38;;;;;;;;;;;;;;;;;;6107322;23;20003;-96
2023/05/13 16:59:05;;;;;;;;;;;;;;;;;;6130910;23;19924;-93
2023/05/13 17:01:34;;;;;;;;;;;;;;;;;;6107433;23;19938;-94
2023/05/13 17:04:00;;;;;;;;;;;;;;;;;;6106460;23;19954;-91
2023/05/13 17:06:27;;;;;;;;;;;;;;;;;;6105459;23;19917;-93
2023/05/13 17:08:53;;;;;;;;;;;;;;;;;;6107219;23;19987;-93
2023/05/13 17:11:20;;;;;;;;;;;;;;;;;;6107147;23;19917;-94
2023/05/13 17:13:48;;;;;;;;;;;;;;;;;;6131558;23;19917;-95
2023/05/13 17:21:31;;;;;;;;;;;;;;;;;;6209051;22;19919;-96
2023/05/13 17:24:16;;;;;;;;;;;;;;;;;;6194997;23;19954;-94
2023/05/13 17:32:26;;;;;;;;;;;;;;;;;;6194340;23;20009;-96
2023/05/13 17:34:52;;;;;;;;;;;;;;;;;;6167565;23;19985;-95
2023/05/13 17:37:22;;;;;;;;;;;;;;;;;;6192779;23;19923;-94
2023/05/13 17:39:50;;;;;;;;;;;;;;;;;;6166015;23;19927;-93
2023/05/13 17:42:15;;;;;;;;;;;;;;;;;;6189613;23;19923;-93
2023/05/13 17:44:44;;;;;;;;;;;;;;;;;;6189879;23;19982;-95
2023/05/13 17:47:11;;;;;;;;;;;;;;;;;;6166267;23;19946;-94
2023/05/13 17:50:13;;;;;;;;;;;;;;;;;;6217630;23;20102;-94
2023/05/13 17:52:42;;;;;;;;;;;;;;;;;;6166160;23;19915;-93
2023/05/13 17:55:08;;;;;;;;;;;;;;;;;;6190291;23;19931;-93
2023/05/13 17:57:37;;;;;;;;;;;;;;;;;;6191109;23;19927;-92
2023/05/13 18:00:06;;;;;;;;;;;;;;;;;;6166374;23;19947;-93
2023/05/13 18:02:32;;;;;;;;;;;;;;;;;;6164795;23;19916;-92
2023/05/13 18:04:59;;;;;;;;;;;;;;;;;;6165089;23;19943;-92
2023/05/13 18:07:25;;;;;;;;;;;;;;;;;;6165070;23;19920;-95
2023/05/13 18:09:51;;;;;;;;;;;;;;;;;;6165646;23;20314;-95
2023/05/13 18:12:18;;;;;;;;;;;;;;;;;;6190180;23;20001;-94
2023/05/13 18:14:47;;;;;;;;;;;;;;;;;;6165766;23;19923;-93
2023/05/13 18:17:13;;;;;;;;;;;;;;;;;;6189500;23;19920;-93
2023/05/13 18:19:39;;;;;;;;;;;;;;;;;;6164532;23;19916;-95
2023/05/13 18:22:09;;;;;;;;;;;;;;;;;;6164544;23;20003;-93
2023/05/13 18:24:36;;;;;;;;;;;;;;;;;;6164741;23;19916;-94
2023/05/13 18:27:02;;;;;;;;;;;;;;;;;;6164325;23;19916;-94
2023/05/13 18:29:28;;;;;;;;;;;;;;;;;;6164582;23;19922;-93
2023/05/13 18:31:57;;;;;;;;;;;;;;;;;;6164288;23;20011;-93
2023/05/13 18:34:23;;;;;;;;;;;;;;;;;;6164694;23;19923;-94
2023/05/13 18:36:49;;;;;;;;;;;;;;;;;;6164507;23;19920;-93
2023/05/13 18:39:15;;;;;;;;;;;;;;;;;;6164008;23;19920;-91